sensor_id;sensor_type;location;lat;lon;timestamp;pressure;altitude;pressure_sealevel;temperature;humidity
13011;BME280;6786;57.632;11.962;2022-12-18T00:00:02;101494.44;;;19.81;33.47
13011;BME280;6786;57.632;11.962;2022-12-18T00:02:32;101499.81;;;19.81;33.34
13011;BME280;6786;57.632;11.962;2022-12-18T00:05:00;101487.16;;;19.83;33.54
13011;BME280;6786;57.632;11.962;2022-12-18T00:07:28;101497.88;;;19.83;33.51
13011;BME280;6786;57.632;11.962;2022-12-18T00:09:56;101481.78;;;19.83;33.57
13011;BME280;6786;57.632;11.962;2022-12-18T00:12:24;101487.16;;;19.83;33.55
13011;BME280;6786;57.632;11.962;2022-12-18T00:14:52;101485.41;;;19.82;33.57
13011;BME280;6786;57.632;11.962;2022-12-18T00:17:19;101480.91;;;19.83;33.48
13011;BME280;6786;57.632;11.962;2022-12-18T00:19:49;101481.78;;;19.83;33.58
13011;BME280;6786;57.632;11.962;2022-12-18T00:22:17;101478.59;;;19.78;33.57
13011;BME280;6786;57.632;11.962;2022-12-18T00:24:45;101481.78;;;19.83;33.49
13011;BME280;6786;57.632;11.962;2022-12-18T00:27:13;101483.47;;;19.84;33.44
13011;BME280;6786;57.632;11.962;2022-12-18T00:29:41;101499.56;;;19.84;33.86
13011;BME280;6786;57.632;11.962;2022-12-18T00:32:08;101478.13;;;19.84;33.48
13011;BME280;6786;57.632;11.962;2022-12-18T00:34:37;101467.38;;;19.84;33.47
13011;BME280;6786;57.632;11.962;2022-12-18T00:37:06;101475.69;;;19.81;33.55
13011;BME280;6786;57.632;11.962;2022-12-18T00:39:34;101476.41;;;19.83;33.46
13011;BME280;6786;57.632;11.962;2022-12-18T00:42:02;101466.63;;;19.82;33.57
13011;BME280;6786;57.632;11.962;2022-12-18T00:44:48;101472.88;;;19.83;33.51
13011;BME280;6786;57.632;11.962;2022-12-18T00:47:15;101482.75;;;19.82;33.50
13011;BME280;6786;57.632;11.962;2022-12-18T00:49:44;101462.38;;;19.80;33.48
13011;BME280;6786;57.632;11.962;2022-12-18T00:52:14;101481.03;;;19.81;33.56
13011;BME280;6786;57.632;11.962;2022-12-18T00:54:42;101480.06;;;19.82;33.50
13011;BME280;6786;57.632;11.962;2022-12-18T00:57:10;101476.41;;;19.83;33.58
13011;BME280;6786;57.632;11.962;2022-12-18T00:59:38;101478.13;;;19.84;33.58
13011;BME280;6786;57.632;11.962;2022-12-18T01:02:06;101471.88;;;19.84;33.63
13011;BME280;6786;57.632;11.962;2022-12-18T01:04:34;101476.41;;;19.83;33.59
13011;BME280;6786;57.632;11.962;2022-12-18T01:07:02;101476.41;;;19.83;33.72
13011;BME280;6786;57.632;11.962;2022-12-18T01:09:31;101480.81;;;19.84;33.58
13011;BME280;6786;57.632;11.962;2022-12-18T01:11:59;101471.88;;;19.84;33.59
13011;BME280;6786;57.632;11.962;2022-12-18T01:14:27;101483.47;;;19.84;33.56
13011;BME280;6786;57.632;11.962;2022-12-18T01:16:55;101469.56;;;19.79;33.46
13011;BME280;6786;57.632;11.962;2022-12-18T01:19:23;101475.44;;;19.84;33.53
13011;BME280;6786;57.632;11.962;2022-12-18T01:21:51;101479.81;;;19.85;33.60
13011;BME280;6786;57.632;11.962;2022-12-18T01:24:19;101479.94;;;19.84;33.54
13011;BME280;6786;57.632;11.962;2022-12-18T01:26:49;101473.75;;;19.83;33.70
13011;BME280;6786;57.632;11.962;2022-12-18T01:29:17;101486.16;;;19.84;33.58
13011;BME280;6786;57.632;11.962;2022-12-18T01:31:45;101494.22;;;19.84;33.82
13011;BME280;6786;57.632;11.962;2022-12-18T01:34:15;101403.03;;;19.40;33.59
13011;BME280;6786;57.632;11.962;2022-12-18T01:36:43;101490.53;;;19.85;33.56
13011;BME280;6786;57.632;11.962;2022-12-18T01:39:12;101495.91;;;19.85;33.60
13011;BME280;6786;57.632;11.962;2022-12-18T01:41:41;101482.75;;;19.82;33.50
13011;BME280;6786;57.632;11.962;2022-12-18T01:45:05;101480.81;;;19.84;34.13
13011;BME280;6786;57.632;11.962;2022-12-18T01:47:37;101478.13;;;19.84;33.67
13011;BME280;6786;57.632;11.962;2022-12-18T01:50:09;101469.56;;;19.79;33.65
13011;BME280;6786;57.632;11.962;2022-12-18T01:52:38;101478.13;;;19.84;33.67
13011;BME280;6786;57.632;11.962;2022-12-18T01:55:10;101469.31;;;19.82;33.61
13011;BME280;6786;57.632;11.962;2022-12-18T01:57:39;101471.06;;;19.83;33.58
13011;BME280;6786;57.632;11.962;2022-12-18T02:00:13;101450.19;;;19.76;33.55
13011;BME280;6786;57.632;11.962;2022-12-18T02:02:42;101467.38;;;19.84;33.66
13011;BME280;6786;57.632;11.962;2022-12-18T02:05:12;101461.16;;;19.84;33.64
13011;BME280;6786;57.632;11.962;2022-12-18T02:07:48;101462.03;;;19.84;33.74
13011;BME280;6786;57.632;11.962;2022-12-18T02:10:25;101467.38;;;19.84;33.67
13011;BME280;6786;57.632;11.962;2022-12-18T02:12:59;101456.66;;;19.84;33.61
13011;BME280;6786;57.632;11.962;2022-12-18T02:15:36;101456.66;;;19.84;33.66
13011;BME280;6786;57.632;11.962;2022-12-18T02:18:08;101456.66;;;19.84;33.60
13011;BME280;6786;57.632;11.962;2022-12-18T02:20:43;101435.78;;;19.66;33.68
13011;BME280;6786;57.632;11.962;2022-12-18T02:23:21;101459.22;;;19.86;33.75
13011;BME280;6786;57.632;11.962;2022-12-18T02:26:15;101451.28;;;19.84;34.05
13011;BME280;6786;57.632;11.962;2022-12-18T02:28:51;101453.97;;;19.84;33.81
13011;BME280;6786;57.632;11.962;2022-12-18T02:31:25;101450.44;;;19.84;33.78
13011;BME280;6786;57.632;11.962;2022-12-18T02:33:55;101448.09;;;19.79;33.72
13011;BME280;6786;57.632;11.962;2022-12-18T02:36:24;101448.72;;;19.83;33.78
13011;BME280;6786;57.632;11.962;2022-12-18T02:38:55;101449.59;;;19.83;33.77
13011;BME280;6786;57.632;11.962;2022-12-18T02:41:27;101460.31;;;19.83;33.80
13011;BME280;6786;57.632;11.962;2022-12-18T02:44:01;101404.84;;;19.51;33.95
13011;BME280;6786;57.632;11.962;2022-12-18T02:46:33;101466.53;;;19.84;33.71
13011;BME280;6786;57.632;11.962;2022-12-18T02:49:09;101455.19;;;19.69;33.65
13011;BME280;6786;57.632;11.962;2022-12-18T02:51:47;101453.34;;;19.81;33.83
13011;BME280;6786;57.632;11.962;2022-12-18T02:54:29;101461.16;;;19.84;33.86
13011;BME280;6786;57.632;11.962;2022-12-18T02:57:11;101471.28;;;19.80;33.80
13011;BME280;6786;57.632;11.962;2022-12-18T02:59:47;101480.91;;;19.83;33.76
13011;BME280;6786;57.632;11.962;2022-12-18T03:02:25;101474.69;;;19.82;33.85
13011;BME280;6786;57.632;11.962;2022-12-18T03:04:59;101471.06;;;19.83;33.78
13011;BME280;6786;57.632;11.962;2022-12-18T03:07:38;101470.19;;;19.83;33.88
13011;BME280;6786;57.632;11.962;2022-12-18T03:10:12;101463.97;;;19.82;33.87
13011;BME280;6786;57.632;11.962;2022-12-18T03:12:45;101469.31;;;19.82;33.78
13011;BME280;6786;57.632;11.962;2022-12-18T03:15:18;101394.25;;;19.38;33.85
13011;BME280;6786;57.632;11.962;2022-12-18T03:17:52;101443.72;;;19.67;33.80
13011;BME280;6786;57.632;11.962;2022-12-18T03:20:21;101481.78;;;19.83;33.83
13011;BME280;6786;57.632;11.962;2022-12-18T03:22:55;101471.06;;;19.83;33.81
13011;BME280;6786;57.632;11.962;2022-12-18T03:25:26;101472.00;;;19.82;33.76
13011;BME280;6786;57.632;11.962;2022-12-18T03:27:58;101455.31;;;19.68;33.85
13011;BME280;6786;57.632;11.962;2022-12-18T03:30:31;101476.41;;;19.83;33.78
13011;BME280;6786;57.632;11.962;2022-12-18T03:33:05;101471.06;;;19.83;33.90
13011;BME280;6786;57.632;11.962;2022-12-18T03:35:39;101482.75;;;19.82;33.79
13011;BME280;6786;57.632;11.962;2022-12-18T03:38:07;101480.91;;;19.83;33.73
13011;BME280;6786;57.632;11.962;2022-12-18T03:40:43;101467.63;;;19.81;33.85
13011;BME280;6786;57.632;11.962;2022-12-18T03:43:18;101463.00;;;19.83;33.90
13011;BME280;6786;57.632;11.962;2022-12-18T03:45:51;101467.63;;;19.81;33.87
13011;BME280;6786;57.632;11.962;2022-12-18T03:48:27;101470.31;;;19.81;33.87
13011;BME280;6786;57.632;11.962;2022-12-18T03:50:59;101474.69;;;19.82;33.81
13011;BME280;6786;57.632;11.962;2022-12-18T03:53:36;101474.69;;;19.82;33.86
13011;BME280;6786;57.632;11.962;2022-12-18T03:56:09;101458.34;;;19.63;33.88
13011;BME280;6786;57.632;11.962;2022-12-18T03:58:40;101481.03;;;19.81;33.79
13011;BME280;6786;57.632;11.962;2022-12-18T04:01:11;101480.06;;;19.82;33.84
13011;BME280;6786;57.632;11.962;2022-12-18T04:03:42;101483.72;;;19.81;33.89
13011;BME280;6786;57.632;11.962;2022-12-18T04:06:11;101472.00;;;19.82;33.81
13011;BME280;6786;57.632;11.962;2022-12-18T04:08:40;101473.00;;;19.81;33.73
13011;BME280;6786;57.632;11.962;2022-12-18T04:11:08;101484.59;;;19.82;33.83
13011;BME280;6786;57.632;11.962;2022-12-18T04:13:39;101491.66;;;19.83;33.89
13011;BME280;6786;57.632;11.962;2022-12-18T04:16:07;101483.72;;;19.81;33.94
13011;BME280;6786;57.632;11.962;2022-12-18T04:18:36;101486.28;;;19.83;33.89
13011;BME280;6786;57.632;11.962;2022-12-18T04:21:04;101429.94;;;19.49;33.94
13011;BME280;6786;57.632;11.962;2022-12-18T04:23:32;101491.66;;;19.83;33.90
13011;BME280;6786;57.632;11.962;2022-12-18T04:26:00;101488.09;;;19.82;33.79
13011;BME280;6786;57.632;11.962;2022-12-18T04:28:28;101498.84;;;19.82;33.85
13011;BME280;6786;57.632;11.962;2022-12-18T04:30:57;101495.19;;;19.83;33.95
13011;BME280;6786;57.632;11.962;2022-12-18T04:33:25;101486.78;;;19.77;33.88
13011;BME280;6786;57.632;11.962;2022-12-18T04:35:53;101512.13;;;19.84;33.88
13011;BME280;6786;57.632;11.962;2022-12-18T04:38:21;101494.22;;;19.84;34.00
13011;BME280;6786;57.632;11.962;2022-12-18T04:40:49;101508.63;;;19.83;33.78
13011;BME280;6786;57.632;11.962;2022-12-18T04:43:17;101482.88;;;19.70;33.86
13011;BME280;6786;57.632;11.962;2022-12-18T04:45:45;101492.50;;;19.83;33.86
13011;BME280;6786;57.632;11.962;2022-12-18T04:48:14;101497.13;;;19.81;33.96
13011;BME280;6786;57.632;11.962;2022-12-18T04:50:42;101487.16;;;19.83;33.87
13011;BME280;6786;57.632;11.962;2022-12-18T04:53:10;101484.47;;;19.83;33.98
13011;BME280;6786;57.632;11.962;2022-12-18T04:55:38;101489.84;;;19.83;33.96
13011;BME280;6786;57.632;11.962;2022-12-18T04:58:06;101482.03;;;19.80;33.80
13011;BME280;6786;57.632;11.962;2022-12-18T05:00:35;101496.91;;;19.84;33.81
13011;BME280;6786;57.632;11.962;2022-12-18T05:03:03;101474.94;;;19.68;33.98
13011;BME280;6786;57.632;11.962;2022-12-18T05:05:34;101503.25;;;19.83;33.92
13011;BME280;6786;57.632;11.962;2022-12-18T05:08:02;101415.16;;;19.22;33.82
13011;BME280;6786;57.632;11.962;2022-12-18T05:10:31;101508.63;;;19.83;34.04
13011;BME280;6786;57.632;11.962;2022-12-18T05:13:04;101495.19;;;19.83;33.91
13011;BME280;6786;57.632;11.962;2022-12-18T05:15:33;101505.06;;;19.83;33.91
13011;BME280;6786;57.632;11.962;2022-12-18T05:18:01;101500.56;;;19.83;34.04
13011;BME280;6786;57.632;11.962;2022-12-18T05:20:32;101504.94;;;19.84;33.90
13011;BME280;6786;57.632;11.962;2022-12-18T05:22:59;101477.63;;;19.68;33.74
13011;BME280;6786;57.632;11.962;2022-12-18T05:25:27;101497.88;;;19.83;33.98
13011;BME280;6786;57.632;11.962;2022-12-18T05:27:56;101497.88;;;19.83;34.00
13011;BME280;6786;57.632;11.962;2022-12-18T05:30:25;101496.16;;;19.82;34.02
13011;BME280;6786;57.632;11.962;2022-12-18T05:32:54;101497.88;;;19.83;34.02
13011;BME280;6786;57.632;11.962;2022-12-18T05:35:22;101490.78;;;19.82;33.78
13011;BME280;6786;57.632;11.962;2022-12-18T05:37:51;101503.25;;;19.83;33.96
13011;BME280;6786;57.632;11.962;2022-12-18T05:40:19;101506.75;;;19.84;34.14
13011;BME280;6786;57.632;11.962;2022-12-18T05:42:47;101505.66;;;19.75;34.02
13011;BME280;6786;57.632;11.962;2022-12-18T05:45:15;101515.66;;;19.84;34.06
13011;BME280;6786;57.632;11.962;2022-12-18T05:47:43;101518.34;;;19.84;34.11
13011;BME280;6786;57.632;11.962;2022-12-18T05:50:11;101531.78;;;19.84;34.02
13011;BME280;6786;57.632;11.962;2022-12-18T05:52:39;101489.94;;;19.60;34.08
13011;BME280;6786;57.632;11.962;2022-12-18T05:55:08;101527.38;;;19.83;33.97
13011;BME280;6786;57.632;11.962;2022-12-18T05:57:37;101510.53;;;19.81;33.96
13011;BME280;6786;57.632;11.962;2022-12-18T06:00:05;101505.81;;;19.85;33.97
13011;BME280;6786;57.632;11.962;2022-12-18T06:02:34;101506.88;;;19.82;33.89
13011;BME280;6786;57.632;11.962;2022-12-18T06:05:02;101516.53;;;19.85;34.04
13011;BME280;6786;57.632;11.962;2022-12-18T06:07:30;101511.16;;;19.85;34.01
13011;BME280;6786;57.632;11.962;2022-12-18T06:09:58;101517.38;;;19.85;34.05
13011;BME280;6786;57.632;11.962;2022-12-18T06:12:27;101525.41;;;19.85;34.01
13011;BME280;6786;57.632;11.962;2022-12-18T06:14:55;101507.63;;;19.84;34.14
13011;BME280;6786;57.632;11.962;2022-12-18T06:17:27;101492.84;;;19.68;34.13
13011;BME280;6786;57.632;11.962;2022-12-18T06:19:55;101528.09;;;19.85;34.06
13011;BME280;6786;57.632;11.962;2022-12-18T06:22:23;101527.28;;;19.85;33.96
13011;BME280;6786;57.632;11.962;2022-12-18T06:24:51;101543.38;;;19.85;34.10
13011;BME280;6786;57.632;11.962;2022-12-18T06:27:20;101520.31;;;19.71;34.03
13011;BME280;6786;57.632;11.962;2022-12-18T06:29:49;101542.50;;;19.84;33.98
13011;BME280;6786;57.632;11.962;2022-12-18T06:32:17;101538.00;;;19.85;34.09
13011;BME280;6786;57.632;11.962;2022-12-18T06:34:45;101537.38;;;19.81;33.85
13011;BME280;6786;57.632;11.962;2022-12-18T06:37:13;101537.13;;;19.84;34.05
13011;BME280;6786;57.632;11.962;2022-12-18T06:39:41;101553.22;;;19.84;33.99
13011;BME280;6786;57.632;11.962;2022-12-18T06:42:09;101547.88;;;19.84;34.04
13011;BME280;6786;57.632;11.962;2022-12-18T06:44:37;101550.53;;;19.84;34.02
13011;BME280;6786;57.632;11.962;2022-12-18T06:47:06;101544.19;;;19.85;34.05
13011;BME280;6786;57.632;11.962;2022-12-18T06:49:34;101544.19;;;19.85;34.09
13011;BME280;6786;57.632;11.962;2022-12-18T06:52:03;101545.19;;;19.84;34.06
13011;BME280;6786;57.632;11.962;2022-12-18T06:54:31;101548.09;;;19.81;34.27
13011;BME280;6786;57.632;11.962;2022-12-18T06:56:59;101554.94;;;19.85;34.11
13011;BME280;6786;57.632;11.962;2022-12-18T06:59:27;101562.03;;;19.86;34.00
13011;BME280;6786;57.632;11.962;2022-12-18T07:01:54;101556.66;;;19.86;34.10
13011;BME280;6786;57.632;11.962;2022-12-18T07:04:28;101579.81;;;19.87;34.15
13011;BME280;6786;57.632;11.962;2022-12-18T07:06:57;101574.44;;;19.87;34.24
13011;BME280;6786;57.632;11.962;2022-12-18T07:09:26;101568.22;;;19.87;34.13
13011;BME280;6786;57.632;11.962;2022-12-18T07:11:57;101545.63;;;19.67;34.25
13011;BME280;6786;57.632;11.962;2022-12-18T07:14:25;101571.88;;;19.86;34.24
13011;BME280;6786;57.632;11.962;2022-12-18T07:16:53;101562.03;;;19.86;34.17
13011;BME280;6786;57.632;11.962;2022-12-18T07:19:21;101541.75;;;19.71;34.13
13011;BME280;6786;57.632;11.962;2022-12-18T07:21:51;101588.84;;;19.86;34.18
13011;BME280;6786;57.632;11.962;2022-12-18T07:24:19;101581.63;;;19.87;34.24
13011;BME280;6786;57.632;11.962;2022-12-18T07:26:47;101594.22;;;19.86;34.21
13011;BME280;6786;57.632;11.962;2022-12-18T07:29:15;101588.00;;;19.86;34.12
13011;BME280;6786;57.632;11.962;2022-12-18T07:31:43;101580.81;;;19.86;34.22
13011;BME280;6786;57.632;11.962;2022-12-18T07:34:11;101588.84;;;19.86;34.30
13011;BME280;6786;57.632;11.962;2022-12-18T07:36:39;101586.16;;;19.86;34.33
13011;BME280;6786;57.632;11.962;2022-12-18T07:39:10;101566.84;;;19.70;34.23
13011;BME280;6786;57.632;11.962;2022-12-18T07:41:38;101590.78;;;19.84;34.25
13011;BME280;6786;57.632;11.962;2022-12-18T07:44:12;101599.59;;;19.86;34.31
13011;BME280;6786;57.632;11.962;2022-12-18T07:46:40;101591.53;;;19.86;34.23
13011;BME280;6786;57.632;11.962;2022-12-18T07:49:08;101590.56;;;19.87;34.21
13011;BME280;6786;57.632;11.962;2022-12-18T07:51:36;101600.41;;;19.87;34.29
13011;BME280;6786;57.632;11.962;2022-12-18T07:54:04;101591.78;;;19.83;34.28
13011;BME280;6786;57.632;11.962;2022-12-18T07:56:34;101592.50;;;19.85;34.28
13011;BME280;6786;57.632;11.962;2022-12-18T07:59:02;101598.59;;;19.87;34.30
13011;BME280;6786;57.632;11.962;2022-12-18T08:01:31;101612.00;;;19.87;34.31
13011;BME280;6786;57.632;11.962;2022-12-18T08:04:00;101562.47;;;19.58;34.21
13011;BME280;6786;57.632;11.962;2022-12-18T08:06:28;101612.00;;;19.87;34.25
13011;BME280;6786;57.632;11.962;2022-12-18T08:08:56;101611.03;;;19.88;34.28
13011;BME280;6786;57.632;11.962;2022-12-18T08:11:26;101613.00;;;19.86;34.22
13011;BME280;6786;57.632;11.962;2022-12-18T08:13:55;101630.91;;;19.86;34.33
13011;BME280;6786;57.632;11.962;2022-12-18T08:16:24;101632.59;;;19.87;34.32
13011;BME280;6786;57.632;11.962;2022-12-18T08:18:52;101637.16;;;19.86;34.45
13011;BME280;6786;57.632;11.962;2022-12-18T08:21:23;101587.78;;;19.54;34.25
13011;BME280;6786;57.632;11.962;2022-12-18T08:23:52;101649.56;;;19.87;34.42
13011;BME280;6786;57.632;11.962;2022-12-18T08:26:21;101629.28;;;19.72;34.44
13011;BME280;6786;57.632;11.962;2022-12-18T08:28:50;101661.28;;;19.86;34.37
13011;BME280;6786;57.632;11.962;2022-12-18T08:31:19;101665.03;;;19.84;34.38
13011;BME280;6786;57.632;11.962;2022-12-18T08:33:50;101644.41;;;19.73;34.47
13011;BME280;6786;57.632;11.962;2022-12-18T08:36:19;101668.59;;;19.84;34.41
13011;BME280;6786;57.632;11.962;2022-12-18T08:38:48;101667.59;;;19.85;34.40
13011;BME280;6786;57.632;11.962;2022-12-18T08:41:17;101669.34;;;19.86;34.48
13011;BME280;6786;57.632;11.962;2022-12-18T08:43:46;101658.03;;;19.70;34.47
13011;BME280;6786;57.632;11.962;2022-12-18T08:46:35;101673.84;;;19.86;34.51
13011;BME280;6786;57.632;11.962;2022-12-18T08:49:04;101677.38;;;19.86;34.40
13011;BME280;6786;57.632;11.962;2022-12-18T08:51:33;101646.09;;;19.63;34.61
13011;BME280;6786;57.632;11.962;2022-12-18T08:54:02;101640.94;;;19.60;34.45
13011;BME280;6786;57.632;11.962;2022-12-18T08:56:32;101685.44;;;19.86;34.41
13011;BME280;6786;57.632;11.962;2022-12-18T08:59:01;101687.13;;;19.87;34.54
13011;BME280;6786;57.632;11.962;2022-12-18T09:01:31;101691.63;;;19.87;34.43
13011;BME280;6786;57.632;11.962;2022-12-18T09:04:02;101704.94;;;19.88;34.47
13011;BME280;6786;57.632;11.962;2022-12-18T09:06:32;101710.31;;;19.88;34.47
13011;BME280;6786;57.632;11.962;2022-12-18T09:09:00;101714.72;;;19.89;34.52
13011;BME280;6786;57.632;11.962;2022-12-18T09:11:29;101718.34;;;19.88;34.44
13011;BME280;6786;57.632;11.962;2022-12-18T09:13:59;101720.19;;;19.88;34.61
13011;BME280;6786;57.632;11.962;2022-12-18T09:16:28;101729.84;;;19.90;34.56
13011;BME280;6786;57.632;11.962;2022-12-18T09:18:58;101717.41;;;19.89;34.54
13011;BME280;6786;57.632;11.962;2022-12-18T09:21:30;101717.41;;;19.89;34.52
13011;BME280;6786;57.632;11.962;2022-12-18T09:24:03;101715.66;;;19.88;34.65
13011;BME280;6786;57.632;11.962;2022-12-18T09:26:34;101698.56;;;19.78;34.69
13011;BME280;6786;57.632;11.962;2022-12-18T09:29:03;101698.34;;;19.81;34.68
13011;BME280;6786;57.632;11.962;2022-12-18T09:31:31;101710.31;;;19.88;34.54
13011;BME280;6786;57.632;11.962;2022-12-18T09:33:59;101698.97;;;19.85;34.68
13011;BME280;6786;57.632;11.962;2022-12-18T09:36:28;101725.56;;;19.88;34.59
13011;BME280;6786;57.632;11.962;2022-12-18T09:38:56;101718.47;;;19.87;34.69
13011;BME280;6786;57.632;11.962;2022-12-18T09:41:45;101714.19;;;19.84;34.94
13011;BME280;6786;57.632;11.962;2022-12-18T09:44:19;101712.25;;;19.86;34.67
13011;BME280;6786;57.632;11.962;2022-12-18T09:46:54;101723.00;;;19.86;34.64
13011;BME280;6786;57.632;11.962;2022-12-18T09:49:27;101726.63;;;19.85;34.65
13011;BME280;6786;57.632;11.962;2022-12-18T09:52:02;101719.34;;;19.87;34.69
13011;BME280;6786;57.632;11.962;2022-12-18T09:54:35;101724.69;;;19.87;34.65
13011;BME280;6786;57.632;11.962;2022-12-18T09:57:05;101728.38;;;19.86;34.70
13011;BME280;6786;57.632;11.962;2022-12-18T09:59:36;101727.38;;;19.87;34.72
13011;BME280;6786;57.632;11.962;2022-12-18T10:02:14;101723.00;;;19.86;34.93
13011;BME280;6786;57.632;11.962;2022-12-18T10:04:44;101733.72;;;19.86;34.69
13011;BME280;6786;57.632;11.962;2022-12-18T10:07:22;101717.63;;;19.86;34.78
13011;BME280;6786;57.632;11.962;2022-12-18T10:09:58;101715.91;;;19.85;34.92
13011;BME280;6786;57.632;11.962;2022-12-18T10:12:32;101729.94;;;19.89;35.05
13011;BME280;6786;57.632;11.962;2022-12-18T10:15:10;101736.91;;;19.91;35.24
13011;BME280;6786;57.632;11.962;2022-12-18T10:17:45;101732.16;;;19.95;35.44
13011;BME280;6786;57.632;11.962;2022-12-18T10:20:26;101733.25;;;19.92;35.97
13011;BME280;6786;57.632;11.962;2022-12-18T10:23:00;101736.66;;;19.94;35.76
13011;BME280;6786;57.632;11.962;2022-12-18T10:25:34;101742.78;;;19.96;35.68
13011;BME280;6786;57.632;11.962;2022-12-18T10:28:10;101712.72;;;19.80;35.95
13011;BME280;6786;57.632;11.962;2022-12-18T10:30:41;101750.19;;;19.93;35.63
13011;BME280;6786;57.632;11.962;2022-12-18T10:33:12;101745.94;;;19.90;35.77
13011;BME280;6786;57.632;11.962;2022-12-18T10:35:42;101758.38;;;19.91;35.66
13011;BME280;6786;57.632;11.962;2022-12-18T10:38:23;101752.16;;;19.91;36.33
13011;BME280;6786;57.632;11.962;2022-12-18T10:40:54;101757.66;;;19.89;35.66
13011;BME280;6786;57.632;11.962;2022-12-18T10:43:25;101760.31;;;19.89;35.65
13011;BME280;6786;57.632;11.962;2022-12-18T10:46:07;101769.31;;;19.88;35.99
13011;BME280;6786;57.632;11.962;2022-12-18T10:48:54;101765.94;;;19.86;36.21
13011;BME280;6786;57.632;11.962;2022-12-18T10:51:24;101764.19;;;19.85;35.63
13011;BME280;6786;57.632;11.962;2022-12-18T10:54:00;101768.50;;;19.88;35.69
13011;BME280;6786;57.632;11.962;2022-12-18T10:56:31;101782.84;;;19.87;35.65
13011;BME280;6786;57.632;11.962;2022-12-18T10:59:02;101774.69;;;19.88;35.68
13011;BME280;6786;57.632;11.962;2022-12-18T11:01:47;101796.16;;;19.88;36.28
13011;BME280;6786;57.632;11.962;2022-12-18T11:04:18;101785.44;;;19.88;35.66
13011;BME280;6786;57.632;11.962;2022-12-18T11:06:57;101785.44;;;19.88;35.92
13011;BME280;6786;57.632;11.962;2022-12-18T11:09:28;101776.66;;;19.86;35.61
13011;BME280;6786;57.632;11.962;2022-12-18T11:11:59;101780.06;;;19.88;35.73
13011;BME280;6786;57.632;11.962;2022-12-18T11:14:30;101786.28;;;19.89;35.61
13011;BME280;6786;57.632;11.962;2022-12-18T11:17:00;101777.38;;;19.88;35.61
13011;BME280;6786;57.632;11.962;2022-12-18T11:19:53;101779.13;;;19.89;35.85
13011;BME280;6786;57.632;11.962;2022-12-18T11:22:24;101786.28;;;19.89;35.66
13011;BME280;6786;57.632;11.962;2022-12-18T11:24:58;101790.78;;;19.88;35.79
13011;BME280;6786;57.632;11.962;2022-12-18T11:27:48;101785.44;;;19.88;35.66
13011;BME280;6786;57.632;11.962;2022-12-18T11:30:22;101796.16;;;19.88;35.64
13011;BME280;6786;57.632;11.962;2022-12-18T11:32:52;101784.72;;;19.86;35.64
13011;BME280;6786;57.632;11.962;2022-12-18T11:35:28;101794.69;;;19.84;35.73
13011;BME280;6786;57.632;11.962;2022-12-18T11:38:04;101787.38;;;19.86;35.75
13011;BME280;6786;57.632;11.962;2022-12-18T11:40:37;101794.69;;;19.84;35.63
13011;BME280;6786;57.632;11.962;2022-12-18T11:43:10;101808.84;;;19.86;35.67
13011;BME280;6786;57.632;11.962;2022-12-18T11:45:46;101803.72;;;19.83;35.61
13011;BME280;6786;57.632;11.962;2022-12-18T11:48:21;101809.91;;;19.84;35.75
13011;BME280;6786;57.632;11.962;2022-12-18T11:50:51;101814.22;;;19.86;35.75
13011;BME280;6786;57.632;11.962;2022-12-18T11:53:20;101819.59;;;19.86;35.64
13011;BME280;6786;57.632;11.962;2022-12-18T11:56:11;101809.09;;;19.83;36.09
13011;BME280;6786;57.632;11.962;2022-12-18T11:58:47;101805.41;;;19.84;35.83
13011;BME280;6786;57.632;11.962;2022-12-18T12:01:28;101808.84;;;19.86;36.03
13011;BME280;6786;57.632;11.962;2022-12-18T12:04:20;101808.84;;;19.86;35.87
13011;BME280;6786;57.632;11.962;2022-12-18T12:07:02;101808.84;;;19.86;35.75
13011;BME280;6786;57.632;11.962;2022-12-18T12:09:41;101815.91;;;19.87;35.93
13011;BME280;6786;57.632;11.962;2022-12-18T12:12:26;101816.91;;;19.86;36.01
13011;BME280;6786;57.632;11.962;2022-12-18T12:15:02;101827.63;;;19.86;35.90
13011;BME280;6786;57.632;11.962;2022-12-18T12:17:37;101830.31;;;19.86;35.73
13011;BME280;6786;57.632;11.962;2022-12-18T12:20:15;101819.59;;;19.86;35.85
13011;BME280;6786;57.632;11.962;2022-12-18T12:22:55;101821.75;;;19.81;35.92
13011;BME280;6786;57.632;11.962;2022-12-18T12:25:33;101841.06;;;19.86;35.76
13011;BME280;6786;57.632;11.962;2022-12-18T12:28:15;101837.38;;;19.87;35.89
13011;BME280;6786;57.632;11.962;2022-12-18T12:30:57;101841.06;;;19.86;36.05
13011;BME280;6786;57.632;11.962;2022-12-18T12:33:35;101838.38;;;19.86;35.91
13011;BME280;6786;57.632;11.962;2022-12-18T12:36:13;101846.41;;;19.86;35.75
13011;BME280;6786;57.632;11.962;2022-12-18T12:38:45;101843.72;;;19.86;35.69
13011;BME280;6786;57.632;11.962;2022-12-18T12:41:20;101832.25;;;19.84;35.72
13011;BME280;6786;57.632;11.962;2022-12-18T12:44:09;101833.22;;;19.83;35.53
13011;BME280;6786;57.632;11.962;2022-12-18T12:46:42;101833.94;;;19.85;35.68
13011;BME280;6786;57.632;11.962;2022-12-18T12:49:14;101831.25;;;19.85;35.75
13011;BME280;6786;57.632;11.962;2022-12-18T12:51:44;101842.88;;;19.86;35.75
13011;BME280;6786;57.632;11.962;2022-12-18T12:54:17;101834.81;;;19.86;35.67
13011;BME280;6786;57.632;11.962;2022-12-18T12:56:53;101830.31;;;19.86;35.75
13011;BME280;6786;57.632;11.962;2022-12-18T12:59:31;101830.31;;;19.86;35.93
13011;BME280;6786;57.632;11.962;2022-12-18T13:02:14;101835.69;;;19.86;35.87
13011;BME280;6786;57.632;11.962;2022-12-18T13:04:48;101835.69;;;19.86;35.87
13011;BME280;6786;57.632;11.962;2022-12-18T13:07:23;101855.41;;;19.85;35.79
13011;BME280;6786;57.632;11.962;2022-12-18T13:10:31;101841.28;;;19.83;36.39
13011;BME280;6786;57.632;11.962;2022-12-18T13:13:02;101857.16;;;19.86;35.68